Weather at Ke-Macina Airport [CLOSED]

Public forecast

Using degrees Celsius for public forecast. Weather courtesy of forecast.io.

Closest aviation weather report (METAR) to Ke-Macina Airport

Report is more than 6 hours old.

Closest report is Mopti Ambodédjo International Airport, 82.6 nm (153.0 km) ENE.

2022/11/14 15:00 (retrieved 2 years ago)

GAMB 141500Z 10010KT 8000 NSC 37/09 Q1011

Closest aviation forecast (TAF) to Ke-Macina Airport

Forecast is more than 12 hours old.

Closest forecast is Modibo Keita International Airport, 172.9 nm (320.3 km) WSW.

2023/02/22 18:51 (retrieved 1 year ago)

TAF TAF GABS 221700Z 2218/2324 05008KT 8000 NSC